createdAt,value
2019-03-04T00:00:28.089Z,10.57
2019-03-04T00:01:28.076Z,10.63
2019-03-04T00:02:28.071Z,10.46
2019-03-04T00:03:28.106Z,10.51
2019-03-04T00:04:28.162Z,10.53
2019-03-04T00:05:28.035Z,10.59
2019-03-04T00:06:28.025Z,10.49
2019-03-04T00:07:28.030Z,10.60
2019-03-04T00:08:28.080Z,10.61
2019-03-04T00:09:27.989Z,10.57
2019-03-04T00:10:27.979Z,10.59
2019-03-04T00:11:27.969Z,10.63
2019-03-04T00:12:27.965Z,10.67
2019-03-04T00:13:27.945Z,10.69
2019-03-04T00:14:28.079Z,10.71
2019-03-04T00:15:27.922Z,10.59
2019-03-04T00:16:27.912Z,10.59
2019-03-04T00:17:27.908Z,10.69
2019-03-04T00:18:28.070Z,10.71
2019-03-04T00:19:28.032Z,10.69
2019-03-04T00:20:28.155Z,10.61
2019-03-04T00:21:27.856Z,10.64
2019-03-04T00:22:27.851Z,10.59
2019-03-04T00:23:27.840Z,10.60
2019-03-04T00:24:27.829Z,10.57
2019-03-04T00:25:27.813Z,10.49
2019-03-04T00:26:27.918Z,10.63
2019-03-04T00:27:27.790Z,10.63
2019-03-04T00:28:27.779Z,10.60
2019-03-04T00:29:27.767Z,10.60
2019-03-04T00:30:27.759Z,10.63
2019-03-04T00:31:27.747Z,10.64
2019-03-04T00:32:27.857Z,10.57
2019-03-04T00:33:27.850Z,10.59
2019-03-04T00:34:27.717Z,10.56
2019-03-04T00:35:27.713Z,10.46
2019-03-04T00:36:27.802Z,10.51
2019-03-04T00:37:27.839Z,10.48
2019-03-04T00:38:27.675Z,10.44
2019-03-04T00:39:27.673Z,10.48
2019-03-04T00:40:27.643Z,10.49
2019-03-04T00:41:27.636Z,10.53
2019-03-04T00:42:27.627Z,10.46
2019-03-04T00:43:27.694Z,10.49
2019-03-04T00:44:27.605Z,10.53
2019-03-04T00:45:27.651Z,10.49
2019-03-04T00:46:27.586Z,10.44
2019-03-04T00:47:27.578Z,10.44
2019-03-04T00:48:27.557Z,10.48
2019-03-04T00:49:27.635Z,10.35
2019-03-04T00:50:27.537Z,10.37
2019-03-04T00:51:28.705Z,10.37
2019-03-04T00:52:27.557Z,10.34
2019-03-04T00:53:27.502Z,10.41
2019-03-04T00:55:39.756Z,10.48
2019-03-04T00:56:39.388Z,10.41
2019-03-04T00:57:39.365Z,10.42
2019-03-04T00:58:39.353Z,10.44
2019-03-04T00:59:39.346Z,10.34
2019-03-04T01:00:39.485Z,10.33
2019-03-04T01:01:39.325Z,10.26
2019-03-04T01:02:39.306Z,10.41
2019-03-04T01:03:39.448Z,10.35
2019-03-04T01:04:39.310Z,10.31
2019-03-04T01:05:39.289Z,10.28
2019-03-04T01:06:39.297Z,10.35
2019-03-04T01:07:39.255Z,10.35
2019-03-04T01:08:39.408Z,10.38
2019-03-04T01:09:39.237Z,10.31
2019-03-04T01:10:39.865Z,10.42
2019-03-04T01:11:39.211Z,10.44
2019-03-04T01:12:39.201Z,10.48
2019-03-04T01:13:39.194Z,10.51
2019-03-04T01:14:39.283Z,10.53
2019-03-04T01:15:39.427Z,10.41
2019-03-04T01:16:39.331Z,10.46
2019-03-04T01:17:39.145Z,10.49
2019-03-04T01:18:39.133Z,10.49
2019-03-04T01:19:39.126Z,10.48
2019-03-04T01:20:39.114Z,10.48
2019-03-04T01:21:39.260Z,10.49
2019-03-04T01:22:39.088Z,10.53
2019-03-04T01:23:39.105Z,10.49
2019-03-04T01:24:39.064Z,10.57
2019-03-04T01:25:41.990Z,10.56
2019-03-04T01:26:39.157Z,10.67
2019-03-04T01:27:39.036Z,10.63
2019-03-04T01:28:39.023Z,10.60
2019-03-04T01:29:39.144Z,10.63
2019-03-04T01:30:39.002Z,10.64
2019-03-04T01:31:38.995Z,10.56
2019-03-04T01:32:39.233Z,10.63
2019-03-04T01:33:38.983Z,10.63
2019-03-04T01:34:38.955Z,10.63
2019-03-04T01:35:38.948Z,10.61
2019-03-04T01:36:38.957Z,10.63
2019-03-04T01:37:38.947Z,10.60
2019-03-04T01:38:39.110Z,10.57
2019-03-04T01:39:38.901Z,10.56
2019-03-04T01:40:38.939Z,10.59
2019-03-04T01:41:38.878Z,10.51
2019-03-04T01:42:39.051Z,10.49
2019-03-04T01:43:39.083Z,10.40
2019-03-04T01:44:38.848Z,10.51
2019-03-04T01:45:39.003Z,10.56
2019-03-04T01:46:38.828Z,10.53
2019-03-04T01:47:38.815Z,10.54
2019-03-04T01:48:38.850Z,10.49
2019-03-04T01:49:38.907Z,10.42
2019-03-04T01:50:38.798Z,10.40
2019-03-04T01:51:38.768Z,10.38
2019-03-04T01:52:38.766Z,10.37
2019-03-04T01:53:38.747Z,10.28
2019-03-04T01:54:38.739Z,10.31
2019-03-04T01:55:38.840Z,10.17
2019-03-04T01:56:38.715Z,10.25
2019-03-04T01:57:38.780Z,10.16
2019-03-04T01:58:38.778Z,10.12
2019-03-04T01:59:38.704Z,10.15
2019-03-04T02:00:38.671Z,10.09
2019-03-04T02:01:38.660Z,10.05
2019-03-04T02:02:38.647Z,10.12
2019-03-04T02:03:38.635Z,10.19
2019-03-04T02:04:38.734Z,10.22
2019-03-04T02:05:38.636Z,10.16
2019-03-04T02:06:38.604Z,10.17
2019-03-04T02:07:38.595Z,10.13
2019-03-04T02:08:38.679Z,10.16
2019-03-04T02:09:38.579Z,10.10
2019-03-04T02:10:38.676Z,10.07
2019-03-04T02:11:38.551Z,10.10
2019-03-04T02:12:38.652Z,10.12
2019-03-04T02:13:38.526Z,10.16
2019-03-04T02:14:38.669Z,10.13
2019-03-04T02:15:38.913Z,10.10
2019-03-04T02:16:39.278Z,10.05
2019-03-04T02:17:38.494Z,10.04
2019-03-04T02:18:38.491Z,10.05
2019-03-04T02:19:38.463Z,9.89
2019-03-04T02:20:38.450Z,9.86
2019-03-04T02:21:38.440Z,9.82
2019-03-04T02:22:38.636Z,9.83
2019-03-04T02:23:39.131Z,9.91
2019-03-04T02:24:38.414Z,9.84
2019-03-04T02:25:38.436Z,9.84
2019-03-04T02:26:38.426Z,9.84
2019-03-04T02:27:38.420Z,9.92
2019-03-04T02:28:38.648Z,9.82
2019-03-04T02:29:38.726Z,9.80
2019-03-04T02:30:38.417Z,9.80
2019-03-04T02:31:38.453Z,9.74
2019-03-04T02:32:38.325Z,9.74
2019-03-04T02:33:38.796Z,9.77
2019-03-04T02:34:38.608Z,9.77
2019-03-04T02:35:38.287Z,9.77
2019-03-04T02:36:38.277Z,9.79
2019-03-04T02:37:38.277Z,9.79
2019-03-04T02:38:38.262Z,9.79
2019-03-04T02:39:39.303Z,9.77
2019-03-04T02:40:38.433Z,9.80
2019-03-04T02:41:38.249Z,9.72
2019-03-04T02:42:38.213Z,9.74
2019-03-04T02:43:38.198Z,9.74
2019-03-04T02:44:38.190Z,9.73
2019-03-04T02:45:38.294Z,9.86
2019-03-04T02:46:38.205Z,9.91
2019-03-04T02:47:38.168Z,9.89
2019-03-04T02:48:38.142Z,9.89
2019-03-04T02:49:38.131Z,9.92
2019-03-04T02:50:38.120Z,10.01
2019-03-04T02:51:38.230Z,10.12
2019-03-04T02:52:38.103Z,9.98
2019-03-04T02:53:38.094Z,10.01
2019-03-04T02:54:38.078Z,9.91
2019-03-04T02:55:38.081Z,9.91
2019-03-04T02:56:38.061Z,9.74
2019-03-04T02:57:38.181Z,9.82
2019-03-04T02:58:38.033Z,9.74
2019-03-04T02:59:38.021Z,9.80
2019-03-04T03:00:39.141Z,9.77
2019-03-04T03:01:38.005Z,9.74
2019-03-04T03:02:38.250Z,9.76
2019-03-04T03:03:38.060Z,9.82
2019-03-04T03:04:38.186Z,9.74
2019-03-04T03:05:37.960Z,9.82
2019-03-04T03:06:37.949Z,9.72
2019-03-04T03:07:37.931Z,9.73
2019-03-04T03:08:38.140Z,9.76
2019-03-04T03:09:38.131Z,9.69
2019-03-04T03:10:37.903Z,9.74
2019-03-04T03:11:37.908Z,9.68
2019-03-04T03:12:37.879Z,9.66
2019-03-04T03:13:37.873Z,9.69
2019-03-04T03:14:37.858Z,9.77
2019-03-04T03:15:38.594Z,9.84
2019-03-04T03:16:37.848Z,9.76
2019-03-04T03:17:37.832Z,9.73
2019-03-04T03:18:37.819Z,9.77
2019-03-04T03:19:37.800Z,9.77
2019-03-04T03:20:38.015Z,9.68
2019-03-04T03:21:38.694Z,9.72
2019-03-04T03:22:37.799Z,9.73
2019-03-04T03:23:38.372Z,9.65
2019-03-04T03:24:37.759Z,9.59
2019-03-04T03:25:37.738Z,9.59
2019-03-04T03:26:37.860Z,9.61
2019-03-04T03:27:37.714Z,9.59
2019-03-04T03:28:37.701Z,9.64
2019-03-04T03:29:37.692Z,9.61
2019-03-04T03:30:37.687Z,9.65
2019-03-04T03:31:37.669Z,9.68
2019-03-04T03:32:37.779Z,9.66
2019-03-04T03:33:39.689Z,9.74
2019-03-04T03:34:37.643Z,9.64
2019-03-04T03:35:37.689Z,9.64
2019-03-04T03:36:37.614Z,9.65
2019-03-04T03:37:37.613Z,9.69
2019-03-04T03:38:37.748Z,9.68
2019-03-04T03:39:37.637Z,9.64
2019-03-04T03:40:37.689Z,9.69
2019-03-04T03:41:37.585Z,9.65
2019-03-04T03:42:37.871Z,9.61
2019-03-04T03:43:37.672Z,9.74
2019-03-04T03:44:37.525Z,9.64
2019-03-04T03:45:37.514Z,9.69
2019-03-04T03:46:37.512Z,9.77
2019-03-04T03:47:37.494Z,9.72
2019-03-04T03:48:37.686Z,9.66
2019-03-04T03:49:37.468Z,9.58
2019-03-04T03:50:37.456Z,9.61
2019-03-04T03:51:37.453Z,9.68
2019-03-04T03:52:37.525Z,9.64
2019-03-04T03:53:37.631Z,9.74
2019-03-04T03:54:37.650Z,9.72
2019-03-04T03:55:37.522Z,9.77
2019-03-04T03:56:37.397Z,9.72
2019-03-04T03:57:37.427Z,9.59
2019-03-04T03:58:37.378Z,9.65
2019-03-04T03:59:37.358Z,9.65
2019-03-04T04:00:37.456Z,9.68
2019-03-04T04:01:37.339Z,9.62
2019-03-04T04:02:37.326Z,9.59
2019-03-04T04:03:37.316Z,9.64
2019-03-04T04:04:37.300Z,9.56
2019-03-04T04:05:37.296Z,9.58
2019-03-04T04:06:37.414Z,9.62
2019-03-04T04:07:37.279Z,9.56
2019-03-04T04:08:37.261Z,9.61
2019-03-04T04:09:37.336Z,9.58
2019-03-04T04:10:37.240Z,9.61
2019-03-04T04:11:37.236Z,9.58
2019-03-04T04:12:37.344Z,9.64
2019-03-04T04:13:37.200Z,9.62
2019-03-04T04:14:37.199Z,9.59
2019-03-04T04:15:37.182Z,9.64
2019-03-04T04:16:37.189Z,9.59
2019-03-04T04:17:37.162Z,9.58
2019-03-04T04:18:37.370Z,9.54
2019-03-04T04:19:37.134Z,9.59
2019-03-04T04:20:37.124Z,9.59
2019-03-04T04:21:37.114Z,9.39
2019-03-04T04:22:37.100Z,9.56
2019-03-04T04:23:37.232Z,9.50
2019-03-04T04:24:37.090Z,9.55
2019-03-04T04:25:37.066Z,9.50
2019-03-04T04:26:37.142Z,9.55
2019-03-04T04:27:37.051Z,9.55
2019-03-04T04:28:37.252Z,9.54
2019-03-04T04:29:37.038Z,9.43
2019-03-04T04:30:37.021Z,9.41
2019-03-04T04:31:37.001Z,9.44
2019-03-04T04:32:37.239Z,9.46
2019-03-04T04:33:37.150Z,9.41
2019-03-04T04:34:36.985Z,9.40
2019-03-04T04:35:36.954Z,9.40
2019-03-04T04:36:37.132Z,9.40
2019-03-04T04:37:36.935Z,9.48
2019-03-04T04:38:36.933Z,9.55
2019-03-04T04:39:37.098Z,9.44
2019-03-04T04:40:36.912Z,9.41
2019-03-04T04:41:36.933Z,9.46
2019-03-04T04:42:37.012Z,9.54
2019-03-04T04:43:36.866Z,9.58
2019-03-04T04:44:36.856Z,9.54
2019-03-04T04:45:36.843Z,9.61
2019-03-04T04:46:36.837Z,9.65
2019-03-04T04:47:37.584Z,9.61
2019-03-04T04:48:36.840Z,9.59
2019-03-04T04:49:36.800Z,9.62
2019-03-04T04:50:36.790Z,9.56
2019-03-04T04:51:36.993Z,9.65
2019-03-04T04:52:36.810Z,9.62
2019-03-04T04:53:36.984Z,9.74
2019-03-04T04:54:36.749Z,9.76
2019-03-04T04:55:36.732Z,9.64
2019-03-04T04:56:57.725Z,9.73
2019-03-04T04:57:36.716Z,9.77
2019-03-04T04:58:36.853Z,9.74
2019-03-04T04:59:36.690Z,9.77
2019-03-04T05:00:36.831Z,9.76
2019-03-04T05:01:36.668Z,9.89
2019-03-04T05:02:36.659Z,9.91
2019-03-04T05:03:36.643Z,9.89
2019-03-04T05:04:36.634Z,9.92
2019-03-04T05:05:36.790Z,9.84
2019-03-04T05:06:47.734Z,9.86
2019-03-04T05:07:36.598Z,9.97
2019-03-04T05:08:36.588Z,9.92
2019-03-04T05:09:36.582Z,9.92
2019-03-04T05:10:36.563Z,9.97
2019-03-04T05:11:36.867Z,10.01
2019-03-04T05:12:36.685Z,9.97
2019-03-04T05:13:36.554Z,10.07
2019-03-04T05:14:36.534Z,10.01
2019-03-04T05:15:36.602Z,10.02
2019-03-04T05:16:36.497Z,9.99
2019-03-04T05:17:36.494Z,10.01
2019-03-04T05:18:36.749Z,9.98
2019-03-04T05:19:36.463Z,10.05
2019-03-04T05:20:36.451Z,10.10
2019-03-04T05:21:36.443Z,10.10
2019-03-04T05:22:36.433Z,10.10
2019-03-04T05:23:36.543Z,10.01
2019-03-04T05:24:36.420Z,9.94
2019-03-04T05:25:36.417Z,10.05
2019-03-04T05:26:36.410Z,10.10
2019-03-04T05:27:36.411Z,10.05
2019-03-04T05:28:36.570Z,10.01
2019-03-04T05:29:36.412Z,9.92
2019-03-04T05:30:36.413Z,9.97
2019-03-04T05:31:36.335Z,9.94
2019-03-04T05:32:36.463Z,9.95
2019-03-04T05:33:36.494Z,9.91
2019-03-04T05:34:36.338Z,9.95
2019-03-04T05:35:36.300Z,9.99
2019-03-04T05:36:36.723Z,9.94
2019-03-04T05:37:36.265Z,9.91
2019-03-04T05:38:36.255Z,9.99
2019-03-04T05:39:36.241Z,10.01
2019-03-04T05:40:36.231Z,9.99
2019-03-04T05:41:36.222Z,9.98
2019-03-04T05:42:36.338Z,10.02
2019-03-04T05:43:36.335Z,10.02
2019-03-04T05:44:36.184Z,10.07
2019-03-04T05:45:36.175Z,10.05
2019-03-04T05:46:36.162Z,10.05
2019-03-04T05:47:36.368Z,9.98
2019-03-04T05:48:36.278Z,10.02
2019-03-04T05:49:36.129Z,10.02
2019-03-04T05:50:36.118Z,10.02
2019-03-04T05:51:36.157Z,9.94
2019-03-04T05:52:36.101Z,9.89
2019-03-04T05:53:36.084Z,9.89
2019-03-04T05:54:36.193Z,9.83
2019-03-04T05:55:36.107Z,9.92
2019-03-04T05:56:36.053Z,9.86
2019-03-04T05:57:36.041Z,9.94
2019-03-04T05:58:36.047Z,9.97
2019-03-04T05:59:36.020Z,9.89
2019-03-04T06:00:36.215Z,9.89
2019-03-04T06:01:35.995Z,9.92
2019-03-04T06:02:35.983Z,9.92
2019-03-04T06:03:35.977Z,9.87
2019-03-04T06:04:36.056Z,9.86
2019-03-04T06:05:36.202Z,9.83
2019-03-04T06:06:36.278Z,9.91
2019-03-04T06:07:35.933Z,9.91
2019-03-04T06:08:35.928Z,9.84
2019-03-04T06:09:35.908Z,9.89
2019-03-04T06:10:36.006Z,9.89
2019-03-04T06:11:35.889Z,9.99
2019-03-04T06:12:36.017Z,9.95
2019-03-04T06:13:35.870Z,10.02
2019-03-04T06:14:35.873Z,10.02
2019-03-04T06:15:35.845Z,10.05
2019-03-04T06:16:46.816Z,10.04
2019-03-04T06:17:38.070Z,10.12
2019-03-04T06:18:35.926Z,10.13
2019-03-04T06:19:35.798Z,10.09
2019-03-04T06:20:35.788Z,10.17
2019-03-04T06:21:35.908Z,10.09
2019-03-04T06:22:35.872Z,10.05
2019-03-04T06:23:35.750Z,10.12
2019-03-04T06:24:35.848Z,10.17
2019-03-04T06:25:35.730Z,10.07
2019-03-04T06:26:35.731Z,10.09
2019-03-04T06:27:35.820Z,10.12
2019-03-04T06:28:35.824Z,10.15
2019-03-04T06:29:35.689Z,10.15
2019-03-04T06:30:35.681Z,10.10
2019-03-04T06:31:35.670Z,10.16
2019-03-04T06:32:35.684Z,10.10
2019-03-04T06:33:35.642Z,10.19
2019-03-04T06:34:35.782Z,10.16
2019-03-04T06:35:36.302Z,10.16
2019-03-04T06:36:35.618Z,10.19
2019-03-04T06:37:35.597Z,10.12
2019-03-04T06:38:35.616Z,10.12
2019-03-04T06:39:35.574Z,10.15
2019-03-04T06:40:35.822Z,10.22
2019-03-04T06:41:35.554Z,10.10
2019-03-04T06:42:35.543Z,10.12
2019-03-04T06:43:36.043Z,10.15
2019-03-04T06:44:35.520Z,10.16
2019-03-04T06:45:35.691Z,10.22
2019-03-04T06:46:35.504Z,10.25
2019-03-04T06:47:35.485Z,10.30
2019-03-04T06:48:35.476Z,10.30
2019-03-04T06:49:35.465Z,10.31
2019-03-04T06:50:35.642Z,10.17
2019-03-04T06:51:35.448Z,10.31
2019-03-04T06:52:35.434Z,10.19
2019-03-04T06:53:35.443Z,10.19
2019-03-04T06:54:35.408Z,10.26
2019-03-04T06:55:35.532Z,10.15
2019-03-04T06:56:35.558Z,10.33
2019-03-04T06:57:35.381Z,10.34
2019-03-04T06:58:35.364Z,10.22
2019-03-04T06:59:35.354Z,10.34
2019-03-04T07:00:35.342Z,10.33
2019-03-04T07:01:35.438Z,10.22
2019-03-04T07:02:35.324Z,10.13
2019-03-04T07:03:35.317Z,10.30
2019-03-04T07:04:35.299Z,10.34
2019-03-04T07:05:35.290Z,10.38
2019-03-04T07:06:35.431Z,10.41
2019-03-04T07:07:35.268Z,10.31
2019-03-04T07:08:35.288Z,10.34
2019-03-04T07:09:35.250Z,10.30
2019-03-04T07:10:35.273Z,10.37
2019-03-04T07:11:35.222Z,10.33
2019-03-04T07:12:35.957Z,10.33
2019-03-04T07:13:35.243Z,10.34
2019-03-04T07:14:35.190Z,10.37
2019-03-04T07:15:35.178Z,10.34
2019-03-04T07:16:35.179Z,10.44
2019-03-04T07:17:35.154Z,10.49
2019-03-04T07:18:36.207Z,10.44
2019-03-04T07:19:35.744Z,10.56
2019-03-04T07:20:35.125Z,10.59
2019-03-04T07:21:35.479Z,10.59
2019-03-04T07:22:35.101Z,10.60
2019-03-04T07:23:35.089Z,10.61
2019-03-04T07:24:35.491Z,10.64
2019-03-04T07:25:35.273Z,10.69
2019-03-04T07:26:35.081Z,10.74
2019-03-04T07:27:35.084Z,10.75
2019-03-04T07:28:35.038Z,10.74
2019-03-04T07:29:35.025Z,10.74
2019-03-04T07:30:35.188Z,10.76
2019-03-04T07:31:35.106Z,10.82
2019-03-04T07:32:35.035Z,10.81
2019-03-04T07:33:35.050Z,10.79
2019-03-04T07:34:34.967Z,10.81
2019-03-04T07:35:35.177Z,10.79
2019-03-04T07:36:35.189Z,10.81
2019-03-04T07:37:35.045Z,10.93
2019-03-04T07:38:34.985Z,10.97
2019-03-04T07:39:34.947Z,10.96
2019-03-04T07:40:34.927Z,10.96
2019-03-04T07:41:36.057Z,10.99
2019-03-04T07:42:34.889Z,11.08
2019-03-04T07:43:35.187Z,11.02
2019-03-04T07:44:35.056Z,11.00
2019-03-04T07:45:34.859Z,10.93
2019-03-04T07:46:35.371Z,11.05
2019-03-04T07:47:34.836Z,11.00
2019-03-04T07:48:34.814Z,11.04
2019-03-04T07:49:34.951Z,11.04
2019-03-04T07:50:34.803Z,11.04
2019-03-04T07:51:34.784Z,11.08
2019-03-04T07:52:34.813Z,10.99
2019-03-04T07:53:34.775Z,10.96
2019-03-04T07:54:35.149Z,11.02
2019-03-04T07:55:39.783Z,11.05
2019-03-04T07:56:34.780Z,11.05
2019-03-04T07:57:34.887Z,10.97
2019-03-04T07:58:35.957Z,10.97
2019-03-04T07:59:34.724Z,11.04
2019-03-04T08:00:34.721Z,11.10
2019-03-04T08:01:34.893Z,10.97
2019-03-04T08:02:35.626Z,10.96
2019-03-04T08:03:34.682Z,11.02
2019-03-04T08:04:34.693Z,11.05
2019-03-04T08:05:34.648Z,11.10
2019-03-04T08:06:34.744Z,11.05
2019-03-04T08:07:34.616Z,11.00
2019-03-04T08:08:34.613Z,11.07
2019-03-04T08:09:34.603Z,11.04
2019-03-04T08:10:34.635Z,11.07
2019-03-04T08:11:34.594Z,11.08
2019-03-04T08:12:35.001Z,11.10
2019-03-04T08:13:34.563Z,11.05
2019-03-04T08:14:34.670Z,11.07
2019-03-04T08:15:34.539Z,11.07
2019-03-04T08:16:36.217Z,11.10
2019-03-04T08:17:34.517Z,11.04
2019-03-04T08:18:35.840Z,11.05
2019-03-04T08:19:34.544Z,11.00
2019-03-04T08:20:34.545Z,11.02
2019-03-04T08:21:34.493Z,11.07
2019-03-04T08:22:34.476Z,11.04
2019-03-04T08:23:35.055Z,11.10
2019-03-04T08:24:34.882Z,11.10
2019-03-04T08:25:34.492Z,11.08
2019-03-04T08:26:34.493Z,11.17
2019-03-04T08:27:49.120Z,11.18
2019-03-04T08:28:34.455Z,11.11
2019-03-04T08:29:34.722Z,11.18
2019-03-04T08:30:34.443Z,11.26
2019-03-04T08:31:34.350Z,11.22
2019-03-04T08:32:34.339Z,11.29
2019-03-04T08:33:34.483Z,11.36
2019-03-04T08:34:34.321Z,11.32
2019-03-04T08:35:34.775Z,11.35
2019-03-04T08:36:34.584Z,11.36
2019-03-04T08:37:34.281Z,11.29
2019-03-04T08:38:34.314Z,11.51
2019-03-04T08:39:34.264Z,11.65
2019-03-04T08:40:34.248Z,11.77
2019-03-04T08:41:34.240Z,12.09
2019-03-04T08:42:34.366Z,12.28
2019-03-04T08:43:34.258Z,12.50
2019-03-04T08:44:34.428Z,12.94
2019-03-04T08:45:34.198Z,13.11
2019-03-04T08:46:34.203Z,13.35
2019-03-04T08:47:34.277Z,13.35
2019-03-04T08:48:34.447Z,13.27
2019-03-04T08:49:34.156Z,13.47
2019-03-04T08:50:34.253Z,13.35
2019-03-04T08:51:34.134Z,13.22
2019-03-04T08:52:34.144Z,13.16
2019-03-04T08:53:34.255Z,13.00
2019-03-04T08:54:34.522Z,13.01
2019-03-04T08:55:34.080Z,12.85
2019-03-04T08:56:34.074Z,12.78
2019-03-04T08:57:34.066Z,12.68
2019-03-04T08:58:34.467Z,12.65
2019-03-04T08:59:34.054Z,12.54
2019-03-04T09:00:34.273Z,12.64
2019-03-04T09:01:34.048Z,12.79
2019-03-04T09:02:34.031Z,12.72
2019-03-04T09:03:34.006Z,12.76
2019-03-04T09:04:33.983Z,12.76
2019-03-04T09:05:34.153Z,12.78
2019-03-04T09:06:34.077Z,12.83
2019-03-04T09:07:34.257Z,12.94
2019-03-04T09:08:33.953Z,12.91
2019-03-04T09:09:33.966Z,12.79
2019-03-04T09:10:33.939Z,12.91
2019-03-04T09:11:34.080Z,12.65
2019-03-04T09:12:35.859Z,12.65
2019-03-04T09:13:33.901Z,12.60
2019-03-04T09:14:33.895Z,12.47
2019-03-04T09:15:33.870Z,12.47
2019-03-04T09:16:33.977Z,12.40
2019-03-04T09:17:33.838Z,12.47
2019-03-04T09:18:34.142Z,12.47
2019-03-04T09:19:33.847Z,12.55
2019-03-04T09:20:33.833Z,12.60
2019-03-04T09:21:33.798Z,12.67
2019-03-04T09:22:33.982Z,12.78
2019-03-04T09:23:33.772Z,12.75
2019-03-04T09:24:33.819Z,12.90
2019-03-04T09:25:33.762Z,12.80
2019-03-04T09:26:33.735Z,12.78
2019-03-04T09:27:33.735Z,12.75
2019-03-04T09:28:33.914Z,12.65
2019-03-04T09:29:33.703Z,12.70
2019-03-04T09:30:33.700Z,12.76
2019-03-04T09:31:33.699Z,12.76
2019-03-04T09:32:33.674Z,12.80
2019-03-04T09:33:33.778Z,12.86
2019-03-04T09:34:33.656Z,13.00
2019-03-04T09:35:33.659Z,12.94
2019-03-04T09:36:33.744Z,12.95
2019-03-04T09:37:33.648Z,13.08
2019-03-04T09:38:33.612Z,13.03
2019-03-04T09:39:33.966Z,13.19
2019-03-04T09:40:33.636Z,13.11
2019-03-04T09:41:33.599Z,12.97
2019-03-04T09:42:33.575Z,13.01
2019-03-04T09:43:33.567Z,13.00
2019-03-04T09:44:33.582Z,12.98
2019-03-04T09:45:38.907Z,12.90
2019-03-04T09:46:34.559Z,12.93
2019-03-04T09:47:33.755Z,12.85
2019-03-04T09:48:33.566Z,12.87
2019-03-04T09:49:33.499Z,12.80
2019-03-04T09:50:33.495Z,12.70
2019-03-04T09:51:33.469Z,12.60
2019-03-04T09:52:33.456Z,12.60
2019-03-04T09:53:39.407Z,12.60
2019-03-04T09:54:34.793Z,12.62
2019-03-04T09:55:33.938Z,12.78
2019-03-04T09:56:33.525Z,12.70
2019-03-04T09:57:33.470Z,12.65
2019-03-04T09:58:33.414Z,12.64
2019-03-04T09:59:33.386Z,12.61
2019-03-04T10:00:33.540Z,12.80
2019-03-04T10:01:33.357Z,12.67
2019-03-04T10:02:33.349Z,12.78
2019-03-04T10:03:33.478Z,12.80
2019-03-04T10:04:33.332Z,12.79
2019-03-04T10:05:33.323Z,12.78
2019-03-04T10:06:33.446Z,12.73
2019-03-04T10:07:33.427Z,12.79
2019-03-04T10:08:33.286Z,12.87
2019-03-04T10:09:33.274Z,12.90
2019-03-04T10:10:33.261Z,12.93
2019-03-04T10:11:33.291Z,13.00
2019-03-04T10:12:33.382Z,13.04
2019-03-04T10:13:33.234Z,13.01
2019-03-04T10:14:33.214Z,13.18
2019-03-04T10:15:33.238Z,13.22
2019-03-04T10:16:33.197Z,13.30
2019-03-04T10:17:33.315Z,13.31
2019-03-04T10:18:33.168Z,13.25
2019-03-04T10:19:33.157Z,13.31
2019-03-04T10:20:33.155Z,13.38
2019-03-04T10:21:33.147Z,13.30
2019-03-04T10:22:33.133Z,13.33
2019-03-04T10:23:33.255Z,13.35
2019-03-04T10:24:33.259Z,13.33
2019-03-04T10:25:33.111Z,13.33
2019-03-04T10:26:33.097Z,13.50
2019-03-04T10:27:33.088Z,13.39
2019-03-04T10:28:33.381Z,13.53
2019-03-04T10:29:33.054Z,13.47
2019-03-04T10:30:33.044Z,13.62
2019-03-04T10:31:33.030Z,13.74
2019-03-04T10:32:33.019Z,13.77
2019-03-04T10:33:33.262Z,13.90
2019-03-04T10:34:32.999Z,14.28
2019-03-04T10:35:32.992Z,16.43
2019-03-04T10:36:32.994Z,18.05
2019-03-04T10:37:32.983Z,19.16
2019-03-04T10:38:32.965Z,20.03
2019-03-04T10:39:33.064Z,21.11
2019-03-04T10:40:32.967Z,22.17
2019-03-04T10:41:32.922Z,23.17
2019-03-04T10:42:32.922Z,22.08
2019-03-04T10:43:32.894Z,21.73
2019-03-04T10:44:37.602Z,20.21
2019-03-04T10:45:33.227Z,19.04
2019-03-04T10:46:32.888Z,19.66
2019-03-04T10:47:32.886Z,19.27
2019-03-04T10:48:32.851Z,19.40
2019-03-04T10:49:33.056Z,19.96
2019-03-04T10:50:32.820Z,18.96
2019-03-04T10:51:32.979Z,17.90
2019-03-04T10:52:32.928Z,17.26
2019-03-04T10:53:32.792Z,16.60
2019-03-04T10:54:32.782Z,16.15
2019-03-04T10:55:41.505Z,15.82
2019-03-04T10:56:33.881Z,15.75
2019-03-04T10:57:32.758Z,15.55
2019-03-04T10:58:47.623Z,15.47
2019-03-04T10:59:32.891Z,15.51
2019-03-04T11:00:32.840Z,15.49
2019-03-04T11:01:32.698Z,15.44
2019-03-04T11:02:32.775Z,15.28
2019-03-04T11:03:32.702Z,15.42
2019-03-04T11:04:32.695Z,15.40
2019-03-04T11:05:32.859Z,15.37
2019-03-04T11:06:32.647Z,15.58
2019-03-04T11:07:32.636Z,15.55
2019-03-04T11:08:32.629Z,15.40
2019-03-04T11:09:32.669Z,15.52
2019-03-04T11:10:32.595Z,15.47
2019-03-04T11:11:32.822Z,15.55
2019-03-04T11:12:32.657Z,15.55
2019-03-04T11:13:32.569Z,15.47
2019-03-04T11:14:32.671Z,15.54
2019-03-04T11:15:32.833Z,15.55
2019-03-04T11:16:32.532Z,15.46
2019-03-04T11:17:32.783Z,15.39
2019-03-04T11:18:32.629Z,15.28
2019-03-04T11:19:32.630Z,15.35
2019-03-04T11:20:32.511Z,15.28
2019-03-04T11:21:32.528Z,15.51
2019-03-04T11:22:32.496Z,15.59
2019-03-04T11:23:32.454Z,15.67
2019-03-04T11:24:32.563Z,15.65
2019-03-04T11:25:32.451Z,15.77
2019-03-04T11:26:32.457Z,15.98
2019-03-04T11:27:32.462Z,15.97
2019-03-04T11:28:32.460Z,15.76
2019-03-04T11:29:32.457Z,15.51
2019-03-04T11:30:32.567Z,15.27
2019-03-04T11:31:32.421Z,15.31
2019-03-04T11:32:32.353Z,15.03
2019-03-04T11:33:32.362Z,14.43
2019-03-04T11:34:32.465Z,13.79
2019-03-04T11:35:32.354Z,13.12
2019-03-04T11:36:32.617Z,12.78
2019-03-04T11:37:32.303Z,12.39
2019-03-04T11:38:32.298Z,12.28
2019-03-04T11:39:32.278Z,12.06
2019-03-04T11:40:32.270Z,11.80
2019-03-04T11:41:32.254Z,11.63
2019-03-04T11:42:32.444Z,11.51
2019-03-04T11:43:32.242Z,11.40
2019-03-04T11:44:32.230Z,11.23
2019-03-04T11:45:32.248Z,11.08
2019-03-04T11:46:32.203Z,11.02
2019-03-04T11:47:32.195Z,11.11
2019-03-04T11:48:32.320Z,10.93
2019-03-04T11:49:32.191Z,10.96
2019-03-04T11:50:32.193Z,10.87
2019-03-04T11:51:32.213Z,10.96
2019-03-04T11:52:32.142Z,10.99
2019-03-04T11:53:32.489Z,10.79
2019-03-04T11:54:32.120Z,10.84
2019-03-04T11:55:32.118Z,10.76
2019-03-04T11:56:32.104Z,10.67
2019-03-04T11:57:32.078Z,10.54
2019-03-04T11:58:32.087Z,10.48
2019-03-04T11:59:32.360Z,10.49
2019-03-04T12:00:32.062Z,10.34
2019-03-04T12:01:32.039Z,10.16
2019-03-04T12:02:38.967Z,10.25
2019-03-04T12:03:33.022Z,10.15
2019-03-04T12:04:32.029Z,10.15
2019-03-04T12:05:32.133Z,10.15
2019-03-04T12:06:31.992Z,10.20
2019-03-04T12:07:31.986Z,10.02
2019-03-04T12:08:32.107Z,10.10
2019-03-04T12:09:31.951Z,10.35
2019-03-04T12:10:31.975Z,10.34
2019-03-04T12:11:38.250Z,10.48
2019-03-04T12:12:32.920Z,10.49
2019-03-04T12:13:31.901Z,10.60
2019-03-04T12:14:31.887Z,10.57
2019-03-04T12:15:31.878Z,10.72
2019-03-04T12:16:31.899Z,10.76
2019-03-04T12:17:32.009Z,10.78
2019-03-04T12:18:31.865Z,10.84
2019-03-04T12:19:31.838Z,10.86
2019-03-04T12:20:31.838Z,10.99
2019-03-04T12:21:31.829Z,10.93
2019-03-04T12:22:33.151Z,11.07
2019-03-04T12:23:31.951Z,11.15
2019-03-04T12:24:31.840Z,11.36
2019-03-04T12:25:31.805Z,11.32
2019-03-04T12:26:31.758Z,11.65
2019-03-04T12:27:31.775Z,11.81
2019-03-04T12:28:31.900Z,11.95
2019-03-04T12:29:46.633Z,12.09
2019-03-04T12:30:31.732Z,12.10
2019-03-04T12:31:31.714Z,12.13
2019-03-04T12:32:31.854Z,12.09
2019-03-04T12:33:31.684Z,11.87
2019-03-04T12:34:31.689Z,11.77
2019-03-04T12:35:31.693Z,11.90
2019-03-04T12:36:31.659Z,11.68
2019-03-04T12:37:31.636Z,11.68
2019-03-04T12:38:31.819Z,11.52
2019-03-04T12:39:31.665Z,11.51
2019-03-04T12:40:31.677Z,11.47
2019-03-04T12:41:31.849Z,11.70
2019-03-04T12:42:31.617Z,11.73
2019-03-04T12:43:32.726Z,12.10
2019-03-04T12:44:31.584Z,12.09
2019-03-04T12:45:34.627Z,12.24
2019-03-04T12:46:31.556Z,12.61
2019-03-04T12:47:31.766Z,13.19
2019-03-04T12:48:31.521Z,13.49
2019-03-04T12:49:31.515Z,13.85
2019-03-04T12:50:31.637Z,13.71
2019-03-04T12:51:31.494Z,13.49
2019-03-04T12:52:31.479Z,13.54
2019-03-04T12:53:37.347Z,13.54
2019-03-04T12:54:32.465Z,13.74
2019-03-04T12:55:31.596Z,13.83
2019-03-04T12:56:31.425Z,14.00
2019-03-04T12:57:31.478Z,14.58
2019-03-04T12:58:31.539Z,14.81
2019-03-04T12:59:31.412Z,15.25
2019-03-04T13:00:31.390Z,15.25